CheckWX is a tool to help pilots better visualize weather data.  It is not intended as a substitute for an official pre-flight weather briefing.

03:46:03 UTC

UCFO TAF
Osh
Osh
TAF UCFO 072246Z 0800/0824 27003G08MPS 3000 BR SCT050 TEMPO 0800/0806 32005MPS 0200 FG FU VV001 BECMG 0813/0815 17005MPS

Dec-8@
00:00 UTC

Dec-8 @ 00:00 UTC

Dec-8@
13:00 UTC

Dec-8 @ 13:00 UTC

TAF UCFO 072246Z 0800/0824 27003G08MPS 3000 BR SCT050
Wind
  • 270° at 6 KTS
  • {Gusting to 16 KTS
Conditions
Mist
Cloud Levels
  • Scattered at 5,000' AGL

Dec-8@
00:00 UTC

Dec-8 @ 00:00 UTC

Dec-8@
06:00 UTC

Dec-8 @ 06:00 UTC

TEMPO 0800/0806 32005MPS 0200 FG FU VV001

Temporary

Temporary Changes expected for less than half the time period

Wind
  • 320° at 10 KTS
Conditions
Fog, Smoke
Cloud Levels
  • Vertical visibility at 100' AGL

Dec-8@
13:00 UTC

Dec-8 @ 13:00 UTC

Dec-9@
00:00 UTC

Dec-9 @ 00:00 UTC

BECMG 0813/0815 17005MPS

Becoming

Becoming Conditions expected by Sun, Dec 8, 2019 @ 15:00 UTC

Wind
  • 170° at 10 KTS
Conditions
Mist
Cloud Levels
  • Scattered at 5,000' AGL